Time;durP1;ratioP1;P1;durP2;ratioP2;P2;SDS_P1;SDS_P2;PMS_P1;PMS_P2;Temp;Humidity;BMP_temperature;BMP_pressure;BME280_temperature;BME280_humidity;BME280_pressure;Samples;Min_cycle;Max_cycle;Signal;HPM_P1;HPM_P2
2022/03/02 00:02:09;;;;;;;36.15;19.52;;;;;;;;;;5088533;28;20056;-79
2022/03/02 00:04:36;;;;;;;39.25;20.25;;;;;;;;;;5093628;28;20064;-79
2022/03/02 00:07:02;;;;;;;40.72;19.27;;;;;;;;;;5091885;28;20045;-79
2022/03/02 00:09:29;;;;;;;39.28;18.58;;;;;;;;;;5084569;28;20064;-79
2022/03/02 00:11:57;;;;;;;37.25;19.60;;;;;;;;;;5074048;28;20053;-79
2022/03/02 00:14:23;;;;;;;36.47;19.48;;;;;;;;;;5092886;28;20056;-79
2022/03/02 00:16:50;;;;;;;36.67;18.38;;;;;;;;;;5091886;28;20624;-79
2022/03/02 00:19:17;;;;;;;39.90;19.25;;;;;;;;;;5091167;28;20055;-79
2022/03/02 00:21:43;;;;;;;35.60;19.02;;;;;;;;;;5090944;28;20045;-80
2022/03/02 00:24:10;;;;;;;37.20;18.88;;;;;;;;;;5092493;28;20241;-79
2022/03/02 00:26:36;;;;;;;36.50;19.40;;;;;;;;;;5090833;28;20044;-79
2022/03/02 00:29:02;;;;;;;35.58;19.15;;;;;;;;;;5090680;28;20138;-79
2022/03/02 00:31:29;;;;;;;34.90;18.85;;;;;;;;;;5091672;28;20048;-79
2022/03/02 00:33:56;;;;;;;35.25;19.40;;;;;;;;;;5091105;28;20103;-79
2022/03/02 00:36:22;;;;;;;36.42;18.42;;;;;;;;;;5090999;28;20079;-78
2022/03/02 00:38:49;;;;;;;35.88;18.25;;;;;;;;;;5091627;28;20052;-79
2022/03/02 00:41:16;;;;;;;32.83;17.90;;;;;;;;;;5092134;28;20052;-79
2022/03/02 00:43:47;;;;;;;33.95;18.65;;;;;;;;;;5090750;28;20060;-79
2022/03/02 00:46:15;;;;;;;37.58;18.65;;;;;;;;;;5092938;28;20050;-79
2022/03/02 00:48:41;;;;;;;35.88;18.33;;;;;;;;;;5090183;28;20056;-79
2022/03/02 00:51:08;;;;;;;35.08;18.08;;;;;;;;;;5089066;28;20048;-79
2022/03/02 00:53:34;;;;;;;35.90;18.08;;;;;;;;;;5091759;28;20143;-79
2022/03/02 00:56:01;;;;;;;38.03;19.27;;;;;;;;;;5090797;28;20495;-79
2022/03/02 00:58:27;;;;;;;37.25;18.70;;;;;;;;;;5090275;28;20048;-79
2022/03/02 01:00:53;;;;;;;33.88;18.70;;;;;;;;;;5090887;28;20052;-79
2022/03/02 01:03:20;;;;;;;36.55;18.65;;;;;;;;;;5080423;28;20052;-79
2022/03/02 01:05:46;;;;;;;33.40;17.92;;;;;;;;;;5075526;28;20527;-79
2022/03/02 01:08:13;;;;;;;36.22;19.17;;;;;;;;;;5091663;28;20056;-79
2022/03/02 01:10:39;;;;;;;34.03;18.73;;;;;;;;;;5085981;28;20884;-79
2022/03/02 01:13:05;;;;;;;35.58;19.17;;;;;;;;;;5091987;28;20040;-79
2022/03/02 01:15:32;;;;;;;35.25;18.67;;;;;;;;;;5092210;28;20060;-79
2022/03/02 01:17:58;;;;;;;38.13;19.35;;;;;;;;;;5089800;28;20763;-78
2022/03/02 01:20:25;;;;;;;35.03;19.35;;;;;;;;;;5091755;28;20114;-78
2022/03/02 01:22:51;;;;;;;37.45;18.42;;;;;;;;;;5092219;28;20065;-79
2022/03/02 01:25:17;;;;;;;35.17;18.75;;;;;;;;;;5091553;28;20056;-79
2022/03/02 01:27:44;;;;;;;36.40;20.00;;;;;;;;;;5085957;28;21017;-79
2022/03/02 01:30:10;;;;;;;38.75;18.63;;;;;;;;;;5079864;28;20068;-79
2022/03/02 01:32:36;;;;;;;40.38;19.98;;;;;;;;;;5086891;28;20110;-79
2022/03/02 01:35:03;;;;;;;36.00;19.45;;;;;;;;;;5071183;28;20499;-79
2022/03/02 01:37:30;;;;;;;35.25;18.63;;;;;;;;;;5072295;28;20053;-79
2022/03/02 01:39:56;;;;;;;36.58;19.10;;;;;;;;;;5090630;28;20052;-79
2022/03/02 01:42:22;;;;;;;38.63;19.27;;;;;;;;;;5091353;28;20079;-79
2022/03/02 01:44:49;;;;;;;38.65;20.05;;;;;;;;;;5090858;28;20515;-79
2022/03/02 01:47:15;;;;;;;40.63;19.73;;;;;;;;;;5089992;28;20048;-79
2022/03/02 01:49:42;;;;;;;37.42;18.60;;;;;;;;;;5090611;28;20083;-79
2022/03/02 01:52:11;;;;;;;38.03;18.70;;;;;;;;;;5091614;28;20056;-79
2022/03/02 01:54:37;;;;;;;36.00;17.88;;;;;;;;;;5091440;28;20559;-79
2022/03/02 01:57:04;;;;;;;37.50;19.15;;;;;;;;;;5091353;28;20106;-79
2022/03/02 01:59:30;;;;;;;36.80;18.33;;;;;;;;;;5090003;28;20112;-79
2022/03/02 02:01:57;;;;;;;35.97;18.77;;;;;;;;;;5089720;28;20572;-79
2022/03/02 02:04:24;;;;;;;34.85;18.10;;;;;;;;;;5090079;28;20052;-79
2022/03/02 02:06:50;;;;;;;37.05;18.63;;;;;;;;;;5088678;28;20600;-79
2022/03/02 02:09:16;;;;;;;34.45;18.65;;;;;;;;;;5084843;28;20691;-79
2022/03/02 02:11:43;;;;;;;37.42;19.33;;;;;;;;;;5089542;28;20049;-79
2022/03/02 02:14:09;;;;;;;36.05;18.85;;;;;;;;;;5090459;28;20137;-79
2022/03/02 02:16:36;;;;;;;37.83;18.73;;;;;;;;;;5091124;28;20079;-79
2022/03/02 02:19:02;;;;;;;37.25;19.52;;;;;;;;;;5088267;28;20125;-79
2022/03/02 02:21:29;;;;;;;37.42;19.73;;;;;;;;;;5090202;28;20091;-79
2022/03/02 02:23:55;;;;;;;35.95;17.80;;;;;;;;;;5089615;28;20462;-79
2022/03/02 02:26:22;;;;;;;33.95;18.60;;;;;;;;;;5090838;28;20102;-79
2022/03/02 02:28:50;;;;;;;38.58;18.15;;;;;;;;;;5090719;28;20057;-79
2022/03/02 02:31:16;;;;;;;36.25;17.80;;;;;;;;;;5090193;28;20053;-79
2022/03/02 02:33:43;;;;;;;34.60;18.75;;;;;;;;;;5089498;28;20110;-79
2022/03/02 02:36:11;;;;;;;35.10;18.13;;;;;;;;;;5088850;28;20048;-79
2022/03/02 02:38:37;;;;;;;37.42;18.70;;;;;;;;;;5089297;28;20102;-79
2022/03/02 02:41:03;;;;;;;34.50;18.10;;;;;;;;;;5089656;28;20099;-79
2022/03/02 02:43:30;;;;;;;36.17;18.40;;;;;;;;;;5090512;28;20052;-79
2022/03/02 02:45:56;;;;;;;35.72;18.48;;;;;;;;;;5090103;28;20052;-79
2022/03/02 02:48:23;;;;;;;37.67;18.98;;;;;;;;;;5087750;28;20049;-79
2022/03/02 02:50:49;;;;;;;33.92;17.80;;;;;;;;;;5086091;28;20036;-79
2022/03/02 02:53:16;;;;;;;33.90;17.50;;;;;;;;;;5089638;28;20644;-79
2022/03/02 02:55:44;;;;;;;35.85;17.45;;;;;;;;;;5088536;28;20053;-79
2022/03/02 02:58:11;;;;;;;33.88;17.52;;;;;;;;;;5088731;28;20106;-79
2022/03/02 03:00:38;;;;;;;33.75;17.10;;;;;;;;;;5089545;28;20102;-79
2022/03/02 03:03:05;;;;;;;32.72;18.20;;;;;;;;;;5089080;28;20123;-79
2022/03/02 03:05:32;;;;;;;33.92;17.30;;;;;;;;;;5090646;28;20107;-79
2022/03/02 03:08:00;;;;;;;34.83;17.83;;;;;;;;;;5088207;28;20060;-79
2022/03/02 03:10:27;;;;;;;35.63;18.42;;;;;;;;;;5084674;28;20083;-79
2022/03/02 03:12:53;;;;;;;34.40;18.02;;;;;;;;;;5088949;28;20060;-79
2022/03/02 03:15:20;;;;;;;35.28;17.95;;;;;;;;;;5090563;28;20501;-79
2022/03/02 03:17:47;;;;;;;32.40;17.00;;;;;;;;;;5093887;28;20044;-79
2022/03/02 03:20:14;;;;;;;34.75;18.25;;;;;;;;;;5094448;28;20056;-79
2022/03/02 03:22:41;;;;;;;35.97;18.80;;;;;;;;;;5093675;28;20052;-79
2022/03/02 03:25:08;;;;;;;39.00;18.45;;;;;;;;;;5092196;28;20060;-79
2022/03/02 03:27:35;;;;;;;38.25;18.35;;;;;;;;;;5092626;28;20052;-79
2022/03/02 03:30:02;;;;;;;42.78;19.08;;;;;;;;;;5091451;28;20052;-79
2022/03/02 03:32:28;;;;;;;36.75;18.13;;;;;;;;;;5092332;28;20056;-79
2022/03/02 03:34:55;;;;;;;35.40;18.25;;;;;;;;;;5092379;28;20495;-79
2022/03/02 03:37:21;;;;;;;36.42;17.77;;;;;;;;;;5091753;28;20092;-79
2022/03/02 03:39:47;;;;;;;34.38;17.02;;;;;;;;;;5092853;28;20061;-79
2022/03/02 03:42:14;;;;;;;41.63;18.83;;;;;;;;;;5092270;28;20147;-79
2022/03/02 03:44:40;;;;;;;31.83;17.77;;;;;;;;;;5091777;28;20067;-79
2022/03/02 03:47:07;;;;;;;39.20;19.17;;;;;;;;;;5093377;28;20064;-79
2022/03/02 03:49:33;;;;;;;38.17;18.48;;;;;;;;;;5091651;28;20052;-79
2022/03/02 03:51:59;;;;;;;33.22;18.15;;;;;;;;;;5091991;28;20053;-79
2022/03/02 03:54:26;;;;;;;32.65;18.10;;;;;;;;;;5092227;28;20118;-79
2022/03/02 03:56:53;;;;;;;39.15;18.25;;;;;;;;;;5091126;28;21038;-79
2022/03/02 03:59:19;;;;;;;34.72;17.27;;;;;;;;;;5092201;28;20040;-79
2022/03/02 04:01:45;;;;;;;34.08;17.85;;;;;;;;;;5091983;28;20057;-79
2022/03/02 04:04:12;;;;;;;33.72;16.98;;;;;;;;;;5092913;28;20139;-79
2022/03/02 04:06:38;;;;;;;34.60;17.52;;;;;;;;;;5090967;28;20057;-79
2022/03/02 04:09:05;;;;;;;35.88;18.20;;;;;;;;;;5092620;28;20094;-79
2022/03/02 04:11:31;;;;;;;34.92;17.65;;;;;;;;;;5078628;28;20846;-79
2022/03/02 04:13:58;;;;;;;36.28;17.15;;;;;;;;;;5092533;28;20116;-79
2022/03/02 04:16:24;;;;;;;36.03;18.58;;;;;;;;;;5092477;28;20565;-79
2022/03/02 04:18:51;;;;;;;35.33;17.80;;;;;;;;;;5092581;28;20095;-79
2022/03/02 04:21:17;;;;;;;36.78;17.45;;;;;;;;;;5075816;28;20068;-79
2022/03/02 04:23:44;;;;;;;34.88;17.77;;;;;;;;;;5080569;28;20162;-79
2022/03/02 04:26:10;;;;;;;33.65;18.08;;;;;;;;;;5092930;28;20075;-79
2022/03/02 04:28:36;;;;;;;35.70;17.13;;;;;;;;;;5092462;28;20053;-79
2022/03/02 04:31:03;;;;;;;33.50;16.70;;;;;;;;;;5093047;28;20056;-79
2022/03/02 04:33:29;;;;;;;33.33;17.42;;;;;;;;;;5094046;28;20055;-79
2022/03/02 04:35:56;;;;;;;36.22;18.50;;;;;;;;;;5091586;28;21261;-79
2022/03/02 04:38:23;;;;;;;36.72;18.42;;;;;;;;;;5092104;28;20060;-79
2022/03/02 04:40:49;;;;;;;34.20;16.75;;;;;;;;;;5093060;28;20083;-79
2022/03/02 04:43:17;;;;;;;33.55;17.25;;;;;;;;;;5093097;28;20868;-79
2022/03/02 04:45:44;;;;;;;35.17;17.63;;;;;;;;;;5092227;28;20506;-79
2022/03/02 04:48:10;;;;;;;37.88;18.98;;;;;;;;;;5094009;28;20060;-79
2022/03/02 04:50:37;;;;;;;33.60;17.55;;;;;;;;;;5093717;28;20094;-79
2022/03/02 04:53:03;;;;;;;31.35;16.55;;;;;;;;;;5090563;28;20133;-79
2022/03/02 04:55:30;;;;;;;31.88;17.30;;;;;;;;;;5090895;28;20948;-79
2022/03/02 04:57:58;;;;;;;35.13;17.63;;;;;;;;;;5090615;28;20568;-79
2022/03/02 05:00:26;;;;;;;37.78;17.75;;;;;;;;;;5092241;28;20053;-79
2022/03/02 05:02:57;;;;;;;36.03;17.70;;;;;;;;;;5092295;28;20857;-79
2022/03/02 05:05:25;;;;;;;35.65;17.77;;;;;;;;;;5090409;28;20898;-79
2022/03/02 05:07:51;;;;;;;34.75;17.35;;;;;;;;;;5089703;28;20048;-79
2022/03/02 05:10:19;;;;;;;35.92;18.02;;;;;;;;;;5088093;28;20053;-79
2022/03/02 05:12:46;;;;;;;35.05;17.45;;;;;;;;;;5089510;28;20511;-80
2022/03/02 05:15:13;;;;;;;34.08;18.55;;;;;;;;;;5090859;28;20099;-79
2022/03/02 05:17:40;;;;;;;38.83;19.13;;;;;;;;;;5091276;28;20095;-79
2022/03/02 05:20:07;;;;;;;34.95;18.42;;;;;;;;;;5090862;28;20055;-79
2022/03/02 05:22:34;;;;;;;35.13;17.30;;;;;;;;;;5090260;28;20049;-79
2022/03/02 05:25:01;;;;;;;37.60;18.33;;;;;;;;;;5089790;28;20048;-79
2022/03/02 05:27:27;;;;;;;36.75;17.60;;;;;;;;;;5090092;28;20138;-79
2022/03/02 05:29:53;;;;;;;39.30;19.05;;;;;;;;;;5089834;28;20110;-79
2022/03/02 05:32:20;;;;;;;34.33;17.85;;;;;;;;;;5091283;28;20118;-79
2022/03/02 05:34:46;;;;;;;37.85;19.10;;;;;;;;;;5090311;28;20458;-79
2022/03/02 05:37:12;;;;;;;34.95;18.35;;;;;;;;;;5086665;28;20052;-79
2022/03/02 05:39:39;;;;;;;37.95;19.35;;;;;;;;;;5090098;28;20086;-79
2022/03/02 05:42:06;;;;;;;38.13;19.55;;;;;;;;;;5089611;28;20079;-79
2022/03/02 05:44:33;;;;;;;39.05;18.65;;;;;;;;;;5090982;28;20086;-79
2022/03/02 05:46:59;;;;;;;34.53;18.17;;;;;;;;;;5090754;28;20060;-79
2022/03/02 05:49:26;;;;;;;41.78;19.52;;;;;;;;;;5088843;28;20503;-79
2022/03/02 05:51:52;;;;;;;37.90;19.55;;;;;;;;;;5089871;28;20554;-79
2022/03/02 05:54:18;;;;;;;39.83;19.95;;;;;;;;;;5090769;28;20110;-79
2022/03/02 05:56:45;;;;;;;38.22;18.20;;;;;;;;;;5089372;28;20118;-79
2022/03/02 05:59:12;;;;;;;36.15;19.17;;;;;;;;;;5088373;28;20102;-79
2022/03/02 06:01:39;;;;;;;39.15;20.30;;;;;;;;;;5087607;28;20053;-79
2022/03/02 06:04:06;;;;;;;36.45;18.50;;;;;;;;;;5090537;28;20053;-79
2022/03/02 06:06:38;;;;;;;38.35;19.40;;;;;;;;;;5089177;28;20096;-79
2022/03/02 06:09:05;;;;;;;42.60;21.45;;;;;;;;;;5089041;28;20071;-79
2022/03/02 06:11:33;;;;;;;39.00;18.90;;;;;;;;;;5089556;28;20481;-79
2022/03/02 06:13:59;;;;;;;42.55;20.13;;;;;;;;;;5088427;28;20048;-79
2022/03/02 06:16:26;;;;;;;50.08;20.30;;;;;;;;;;5088391;28;20495;-79
2022/03/02 06:18:52;;;;;;;40.50;20.02;;;;;;;;;;5085779;28;20063;-79
2022/03/02 06:21:22;;;;;;;45.47;21.00;;;;;;;;;;5089457;28;20052;-78
2022/03/02 06:23:48;;;;;;;39.83;19.58;;;;;;;;;;5090632;28;20075;-80
2022/03/02 06:26:15;;;;;;;40.03;19.02;;;;;;;;;;5090642;28;20523;-80
2022/03/02 06:28:41;;;;;;;41.42;19.95;;;;;;;;;;5090029;28;20858;-80
2022/03/02 06:31:08;;;;;;;46.13;20.83;;;;;;;;;;5081414;28;20603;-80
2022/03/02 06:33:35;;;;;;;39.33;20.40;;;;;;;;;;5090413;28;20057;-80
2022/03/02 06:36:01;;;;;;;40.47;18.85;;;;;;;;;;5090914;28;20118;-80
2022/03/02 06:38:28;;;;;;;46.33;20.02;;;;;;;;;;5090026;28;20071;-80
2022/03/02 06:41:03;;;;;;;35.72;18.55;;;;;;;;;;5090146;28;20518;-80
2022/03/02 06:43:34;;;;;;;41.42;18.70;;;;;;;;;;5090441;28;20048;-79
2022/03/02 06:46:00;;;;;;;;;;;;;;;;;;5090588;28;20118;-80
2022/03/02 06:48:51;;;;;;;38.00;17.73;;;;;;;;;;5090340;28;47329;-80
2022/03/02 06:51:20;;;;;;;40.67;18.02;;;;;;;;;;5084985;28;20071;-80
2022/03/02 06:53:47;;;;;;;38.22;18.05;;;;;;;;;;5089020;28;20052;-80
2022/03/02 06:56:16;;;;;;;39.10;19.08;;;;;;;;;;5091670;28;20048;-80
2022/03/02 06:58:48;;;;;;;38.67;18.23;;;;;;;;;;5090119;28;20056;-80
2022/03/02 07:01:17;;;;;;;35.80;18.25;;;;;;;;;;5090574;28;20052;-80
2022/03/02 07:03:47;;;;;;;40.08;18.73;;;;;;;;;;5090454;28;20053;-80
2022/03/02 07:06:14;;;;;;;36.42;18.70;;;;;;;;;;5089301;28;20127;-80
2022/03/02 07:08:48;;;;;;;37.20;18.77;;;;;;;;;;5089236;28;20102;-80
2022/03/02 07:11:16;;;;;;;39.15;18.55;;;;;;;;;;5092308;28;20052;-80
2022/03/02 07:13:45;;;;;;;39.30;18.77;;;;;;;;;;5086679;28;20841;-80
2022/03/02 07:16:15;;;;;;;37.03;18.15;;;;;;;;;;5079489;28;20048;-80
2022/03/02 07:18:41;;;;;;;38.30;18.75;;;;;;;;;;5090601;28;20147;-80
2022/03/02 07:21:14;;;;;;;46.05;20.30;;;;;;;;;;5092659;28;20049;-80
2022/03/02 07:24:01;;;;;;;43.42;19.95;;;;;;;;;;5090206;28;20060;-80
2022/03/02 07:26:28;;;;;;;38.70;18.33;;;;;;;;;;5092093;28;20110;-80
2022/03/02 07:28:54;;;;;;;39.00;19.05;;;;;;;;;;5091686;28;20079;-80
2022/03/02 07:31:22;;;;;;;38.75;18.63;;;;;;;;;;5089289;28;20057;-80
2022/03/02 07:34:02;;;;;;;35.33;18.00;;;;;;;;;;5089680;28;20106;-79
2022/03/02 07:36:30;;;;;;;41.33;20.08;;;;;;;;;;5089531;28;20099;-80
2022/03/02 07:38:56;;;;;;;36.97;19.55;;;;;;;;;;5089095;28;20052;-80
2022/03/02 07:41:22;;;;;;;42.55;20.25;;;;;;;;;;5090812;28;20052;-80
2022/03/02 07:43:50;;;;;;;43.90;19.60;;;;;;;;;;5091649;28;20079;-80
2022/03/02 07:46:17;;;;;;;42.25;19.50;;;;;;;;;;5089053;28;20064;-80
2022/03/02 07:48:43;;;;;;;41.13;20.42;;;;;;;;;;5090836;28;20057;-80
2022/03/02 07:51:10;;;;;;;41.80;20.70;;;;;;;;;;5090274;28;20036;-80
2022/03/02 07:53:39;;;;;;;40.47;21.13;;;;;;;;;;5087903;28;20057;-80
2022/03/02 07:56:06;;;;;;;41.55;20.60;;;;;;;;;;5086314;28;20048;-80
2022/03/02 07:58:33;;;;;;;44.85;22.83;;;;;;;;;;5089380;28;20064;-80
2022/03/02 08:01:03;;;;;;;48.97;22.13;;;;;;;;;;5092457;28;20045;-80
2022/03/02 08:03:30;;;;;;;46.10;21.15;;;;;;;;;;5091669;28;20056;-80
2022/03/02 08:05:59;;;;;;;43.72;20.52;;;;;;;;;;5092987;28;20064;-80
2022/03/02 08:08:26;;;;;;;41.33;19.92;;;;;;;;;;5090799;28;20075;-80
2022/03/02 08:10:52;;;;;;;38.15;19.20;;;;;;;;;;5088527;28;20056;-80
2022/03/02 08:13:19;;;;;;;53.13;20.92;;;;;;;;;;5091590;28;20837;-80
2022/03/02 08:15:45;;;;;;;46.65;21.67;;;;;;;;;;5091703;28;20053;-80
2022/03/02 08:18:12;;;;;;;40.40;19.88;;;;;;;;;;5091735;28;20052;-79
2022/03/02 08:20:53;;;;;;;42.05;19.48;;;;;;;;;;5090650;28;20807;-80
2022/03/02 08:23:20;;;;;;;40.95;19.27;;;;;;;;;;5089505;28;20711;-80
2022/03/02 08:25:50;;;;;;;45.75;19.15;;;;;;;;;;5092959;28;20056;-80
2022/03/02 08:28:17;;;;;;;37.67;18.75;;;;;;;;;;5092737;28;20106;-80
2022/03/02 08:30:45;;;;;;;39.65;19.00;;;;;;;;;;5090247;28;20084;-80
2022/03/02 08:33:16;;;;;;;41.85;18.98;;;;;;;;;;5090520;28;20062;-80
2022/03/02 08:35:42;;;;;;;40.40;19.40;;;;;;;;;;5092440;28;20075;-80
2022/03/02 08:38:09;;;;;;;39.03;19.10;;;;;;;;;;5090853;28;20168;-80
2022/03/02 08:40:37;;;;;;;36.67;18.30;;;;;;;;;;5090372;28;20057;-80
2022/03/02 08:43:05;;;;;;;39.50;17.40;;;;;;;;;;5093351;28;20780;-80
2022/03/02 08:45:32;;;;;;;39.78;18.67;;;;;;;;;;5083916;28;20086;-80
2022/03/02 08:48:05;;;;;;;41.97;19.27;;;;;;;;;;5091897;28;20056;-80
2022/03/02 08:50:31;;;;;;;36.17;18.85;;;;;;;;;;5090820;28;20130;-80
2022/03/02 08:52:58;;;;;;;32.38;16.80;;;;;;;;;;5090393;28;20048;-80
2022/03/02 08:55:27;;;;;;;36.47;18.02;;;;;;;;;;5091348;28;20052;-80
2022/03/02 08:57:54;;;;;;;36.30;17.80;;;;;;;;;;5089608;28;20057;-80
2022/03/02 09:00:21;;;;;;;40.17;17.90;;;;;;;;;;5090233;28;20070;-81
2022/03/02 09:02:47;;;;;;;32.78;17.17;;;;;;;;;;5090044;28;20048;-81
2022/03/02 09:05:14;;;;;;;38.65;18.20;;;;;;;;;;5092341;28;20063;-80
2022/03/02 09:07:41;;;;;;;36.38;18.70;;;;;;;;;;5088826;28;20060;-80
2022/03/02 09:10:08;;;;;;;38.42;17.73;;;;;;;;;;5089679;28;20052;-80
2022/03/02 09:12:34;;;;;;;35.35;17.17;;;;;;;;;;5089261;28;20499;-80
2022/03/02 09:15:01;;;;;;;31.77;16.00;;;;;;;;;;5089629;28;20083;-81
2022/03/02 09:17:28;;;;;;;35.13;16.48;;;;;;;;;;5090633;28;20106;-80
2022/03/02 09:19:55;;;;;;;31.10;16.52;;;;;;;;;;5094345;28;20052;-80
2022/03/02 09:22:23;;;;;;;34.25;16.50;;;;;;;;;;5089403;28;20045;-81
2022/03/02 09:24:49;;;;;;;33.28;16.70;;;;;;;;;;5090464;28;20056;-81
2022/03/02 09:27:17;;;;;;;32.25;16.90;;;;;;;;;;5090034;28;20044;-81
2022/03/02 09:29:46;;;;;;;32.92;15.73;;;;;;;;;;5082181;28;20057;-81
2022/03/02 09:32:13;;;;;;;30.08;15.77;;;;;;;;;;5083361;28;20202;-81
2022/03/02 09:34:45;;;;;;;31.70;16.25;;;;;;;;;;5090360;28;20048;-81
2022/03/02 09:37:13;;;;;;;31.67;15.85;;;;;;;;;;5083500;28;20056;-81
2022/03/02 09:39:46;;;;;;;34.22;16.83;;;;;;;;;;5092472;28;20908;-81
2022/03/02 09:42:24;;;;;;;28.30;15.40;;;;;;;;;;5089800;28;20063;-80
2022/03/02 09:45:10;;;;;;;32.40;14.68;;;;;;;;;;5089766;28;20057;-81
2022/03/02 09:47:44;;;;;;;27.67;14.38;;;;;;;;;;5089921;28;20496;-81
2022/03/02 09:50:12;;;;;;;30.65;14.52;;;;;;;;;;5086890;28;20102;-81
2022/03/02 09:52:40;;;;;;;27.95;15.23;;;;;;;;;;5091613;28;20064;-81
2022/03/02 09:55:12;;;;;;;31.98;15.00;;;;;;;;;;5091812;28;20126;-81
2022/03/02 09:57:42;;;;;;;27.52;14.00;;;;;;;;;;5089786;28;20491;-81
2022/03/02 10:00:09;;;;;;;28.15;15.18;;;;;;;;;;5084989;28;20484;-81
2022/03/02 10:02:40;;;;;;;29.45;14.15;;;;;;;;;;5084651;28;20036;-81
2022/03/02 10:05:09;;;;;;;27.42;14.50;;;;;;;;;;5086724;28;20075;-82
2022/03/02 10:07:36;;;;;;;26.88;13.68;;;;;;;;;;5087754;28;20091;-81
2022/03/02 10:10:05;;;;;;;30.25;15.48;;;;;;;;;;5087552;28;20065;-81
2022/03/02 10:12:32;;;;;;;28.38;14.05;;;;;;;;;;5086639;28;20060;-79
2022/03/02 10:14:58;;;;;;;24.85;13.02;;;;;;;;;;5086371;28;20138;-79
2022/03/02 10:17:30;;;;;;;25.70;13.30;;;;;;;;;;5086235;28;20064;-79
2022/03/02 10:20:00;;;;;;;29.75;14.45;;;;;;;;;;5088399;28;20126;-79
2022/03/02 10:22:36;;;;;;;25.42;13.70;;;;;;;;;;5086358;28;20601;-79
2022/03/02 10:25:05;;;;;;;25.77;12.93;;;;;;;;;;5088183;28;20679;-79
2022/03/02 10:27:31;;;;;;;24.40;13.27;;;;;;;;;;5088277;28;20057;-79
2022/03/02 10:30:04;;;;;;;22.95;12.93;;;;;;;;;;5086734;28;20114;-79
2022/03/02 10:32:33;;;;;;;23.70;12.52;;;;;;;;;;5087895;28;20040;-79
2022/03/02 10:35:02;;;;;;;24.23;12.88;;;;;;;;;;5087972;28;20065;-80
2022/03/02 10:37:30;;;;;;;23.52;13.00;;;;;;;;;;5087568;28;20052;-80
2022/03/02 10:40:05;;;;;;;21.95;12.07;;;;;;;;;;5087712;28;20129;-80
2022/03/02 10:42:33;;;;;;;21.92;12.57;;;;;;;;;;5082213;28;20049;-79
2022/03/02 10:45:00;;;;;;;20.88;11.57;;;;;;;;;;5083282;28;20056;-79
2022/03/02 10:47:28;;;;;;;22.63;11.60;;;;;;;;;;5085764;28;20080;-79
2022/03/02 10:49:56;;;;;;;22.73;12.35;;;;;;;;;;5087048;28;20059;-79
2022/03/02 10:52:25;;;;;;;22.40;12.05;;;;;;;;;;5082098;28;20079;-79
2022/03/02 10:54:52;;;;;;;21.33;11.60;;;;;;;;;;5086414;28;20133;-79
2022/03/02 10:57:21;;;;;;;21.38;11.32;;;;;;;;;;5080805;28;20052;-79
2022/03/02 10:59:51;;;;;;;20.38;11.35;;;;;;;;;;5081074;28;20048;-79
2022/03/02 11:02:20;;;;;;;22.77;11.60;;;;;;;;;;5083624;28;20110;-79
2022/03/02 11:04:47;;;;;;;22.50;12.50;;;;;;;;;;5086114;28;20527;-79
2022/03/02 11:07:15;;;;;;;21.20;10.95;;;;;;;;;;5086820;28;20795;-79
2022/03/02 11:09:50;;;;;;;22.10;11.43;;;;;;;;;;5082729;28;20076;-79
2022/03/02 11:12:20;;;;;;;19.98;10.45;;;;;;;;;;5084830;28;20499;-79
2022/03/02 11:14:57;;;;;;;22.88;11.45;;;;;;;;;;5086363;28;20139;-79
2022/03/02 11:17:24;;;;;;;21.75;10.80;;;;;;;;;;5083338;28;20090;-79
2022/03/02 11:19:53;;;;;;;20.00;10.35;;;;;;;;;;5080990;28;20053;-79
2022/03/02 11:22:21;;;;;;;19.08;10.27;;;;;;;;;;5081839;28;20056;-79
2022/03/02 11:24:47;;;;;;;17.40;10.10;;;;;;;;;;5085237;28;20057;-79
2022/03/02 11:27:27;;;;;;;19.67;10.43;;;;;;;;;;5089851;28;20584;-79
2022/03/02 11:30:12;;;;;;;17.80;9.95;;;;;;;;;;5085599;28;20091;-79
2022/03/02 11:32:40;;;;;;;17.67;9.88;;;;;;;;;;5086044;28;20092;-79
2022/03/02 11:35:09;;;;;;;16.30;9.02;;;;;;;;;;5086060;28;20057;-80
2022/03/02 11:37:36;;;;;;;15.77;9.07;;;;;;;;;;5091476;28;20049;-79
2022/03/02 11:40:04;;;;;;;18.40;9.65;;;;;;;;;;5091274;28;20531;-79
2022/03/02 11:42:32;;;;;;;16.45;8.77;;;;;;;;;;5088592;28;20052;-80
2022/03/02 11:44:59;;;;;;;19.02;9.98;;;;;;;;;;5089269;28;20056;-79
2022/03/02 11:47:36;;;;;;;15.55;8.57;;;;;;;;;;5086534;28;20056;-80
2022/03/02 11:50:03;;;;;;;20.27;8.80;;;;;;;;;;5087222;28;20057;-80
2022/03/02 11:52:32;;;;;;;16.35;8.60;;;;;;;;;;5084041;28;20158;-79
2022/03/02 11:55:13;;;;;;;15.27;7.80;;;;;;;;;;5079845;28;20084;-80
2022/03/02 11:57:49;;;;;;;16.45;8.00;;;;;;;;;;5084710;28;20102;-80
2022/03/02 12:00:17;;;;;;;15.85;8.27;;;;;;;;;;5074646;28;20057;-80
2022/03/02 12:02:45;;;;;;;15.20;8.15;;;;;;;;;;5084328;28;20060;-80
2022/03/02 12:05:13;;;;;;;14.18;7.43;;;;;;;;;;5086858;28;20051;-80
2022/03/02 12:07:40;;;;;;;14.75;7.80;;;;;;;;;;5087338;28;20894;-80
2022/03/02 12:10:16;;;;;;;14.45;7.47;;;;;;;;;;5088932;28;20114;-80
2022/03/02 12:12:42;;;;;;;13.82;7.13;;;;;;;;;;5090954;28;20056;-80
2022/03/02 12:15:09;;;;;;;11.98;7.00;;;;;;;;;;5092106;28;20110;-79
2022/03/02 12:17:36;;;;;;;13.40;7.22;;;;;;;;;;5091820;28;20404;-79
2022/03/02 12:20:10;;;;;;;14.18;7.10;;;;;;;;;;5090984;28;20475;-80
2022/03/02 12:22:37;;;;;;;14.15;7.20;;;;;;;;;;5090937;28;20132;-79
2022/03/02 12:25:04;;;;;;;13.13;7.20;;;;;;;;;;5090615;28;20447;-80
2022/03/02 12:27:30;;;;;;;13.13;6.70;;;;;;;;;;5089802;28;20675;-80
2022/03/02 12:29:59;;;;;;;13.60;7.20;;;;;;;;;;5092053;28;20519;-79
2022/03/02 12:32:26;;;;;;;12.23;7.10;;;;;;;;;;5092237;28;20052;-80
2022/03/02 12:34:54;;;;;;;12.40;7.10;;;;;;;;;;5083861;28;20053;-80
2022/03/02 12:37:21;;;;;;;15.38;7.60;;;;;;;;;;5086365;28;20053;-80
2022/03/02 12:39:50;;;;;;;16.05;7.05;;;;;;;;;;5074807;28;20056;-80
2022/03/02 12:42:16;;;;;;;14.20;7.72;;;;;;;;;;5089851;28;20044;-80
2022/03/02 12:44:48;;;;;;;12.75;7.03;;;;;;;;;;5089014;28;20052;-80
2022/03/02 12:47:16;;;;;;;13.40;7.05;;;;;;;;;;5090373;28;20791;-80
2022/03/02 12:49:44;;;;;;;13.77;6.72;;;;;;;;;;5091767;28;20056;-80
2022/03/02 12:52:13;;;;;;;14.27;6.75;;;;;;;;;;5088815;28;20676;-80
2022/03/02 12:54:42;;;;;;;13.10;6.63;;;;;;;;;;5089291;28;20091;-80
2022/03/02 12:57:13;;;;;;;14.35;7.30;;;;;;;;;;5089988;28;20503;-80
2022/03/02 12:59:40;;;;;;;15.07;7.55;;;;;;;;;;5085179;28;20947;-80
2022/03/02 13:02:07;;;;;;;14.00;7.25;;;;;;;;;;5086764;28;20052;-80
2022/03/02 13:04:37;;;;;;;11.75;7.07;;;;;;;;;;5085484;28;20519;-79
2022/03/02 13:07:08;;;;;;;11.65;6.75;;;;;;;;;;5088836;28;20566;-79
2022/03/02 13:09:43;;;;;;;13.63;6.88;;;;;;;;;;5081381;28;20520;-79
2022/03/02 13:12:28;;;;;;;15.52;7.80;;;;;;;;;;5085480;28;20056;-79
2022/03/02 13:14:54;;;;;;;13.30;7.05;;;;;;;;;;5081192;28;20106;-79
2022/03/02 13:17:22;;;;;;;11.98;6.90;;;;;;;;;;5083290;28;20049;-79
2022/03/02 13:20:18;;;;;;;13.80;7.30;;;;;;;;;;5087146;28;20511;-79
2022/03/02 13:22:46;;;;;;;15.52;6.97;;;;;;;;;;5088965;28;20060;-79
2022/03/02 13:25:13;;;;;;;15.15;6.68;;;;;;;;;;5088726;28;20033;-79
2022/03/02 13:27:59;;;;;;;12.57;7.15;;;;;;;;;;5082115;28;20106;-79
2022/03/02 13:30:26;;;;;;;17.70;7.75;;;;;;;;;;5090806;28;20118;-79
2022/03/02 13:32:56;;;;;;;12.75;7.05;;;;;;;;;;5090547;28;20048;-79
2022/03/02 13:35:54;;;;;;;11.93;7.05;;;;;;;;;;5090023;28;20057;-79
2022/03/02 13:38:20;;;;;;;13.20;7.18;;;;;;;;;;5081057;28;20101;-79
2022/03/02 13:40:48;;;;;;;14.38;7.07;;;;;;;;;;5088973;28;20052;-79
2022/03/02 13:43:15;;;;;;;13.45;6.97;;;;;;;;;;5089067;28;20059;-79
2022/03/02 13:45:45;;;;;;;15.05;7.50;;;;;;;;;;5089440;28;20121;-79
2022/03/02 13:48:17;;;;;;;12.43;7.18;;;;;;;;;;5068360;28;20099;-79
2022/03/02 13:50:56;;;;;;;15.05;7.95;;;;;;;;;;5080463;28;20052;-79
2022/03/02 13:53:38;;;;;;;12.10;7.00;;;;;;;;;;5090448;28;20052;-79
2022/03/02 13:56:06;;;;;;;14.45;7.90;;;;;;;;;;5088754;28;20056;-79
2022/03/02 13:58:33;;;;;;;14.52;7.55;;;;;;;;;;5087386;28;20519;-79
2022/03/02 14:01:18;;;;;;;13.85;7.40;;;;;;;;;;5089072;28;20057;-79
2022/03/02 14:03:46;;;;;;;14.88;8.23;;;;;;;;;;5088290;28;20055;-79
2022/03/02 14:06:17;;;;;;;13.20;7.60;;;;;;;;;;5088023;28;20090;-79
2022/03/02 14:08:47;;;;;;;15.23;8.68;;;;;;;;;;5089160;28;20084;-79
2022/03/02 14:11:29;;;;;;;15.90;8.02;;;;;;;;;;5089099;28;21301;-79
2022/03/02 14:13:56;;;;;;;14.48;7.30;;;;;;;;;;5088726;28;20055;-79
2022/03/02 14:16:22;;;;;;;15.52;8.38;;;;;;;;;;5068282;28;20111;-79
2022/03/02 14:19:03;;;;;;;14.38;8.25;;;;;;;;;;5081789;28;20048;-79
2022/03/02 14:21:29;;;;;;;15.38;8.20;;;;;;;;;;5087095;28;20049;-79
2022/03/02 14:23:56;;;;;;;15.98;8.40;;;;;;;;;;5088091;28;20057;-79
2022/03/02 14:26:22;;;;;;;15.05;8.63;;;;;;;;;;5086677;28;20155;-79
2022/03/02 14:28:54;;;;;;;16.75;8.82;;;;;;;;;;5086384;28;20053;-79